Schedule Details


Flight Number: CTN445
Departure: Schwechat (LOWW) at 14:25
Arrival: Kastela (LDSP) at 15:45
Route: RUPET DCT GRZ DCT RADLY DCT ROKSA/N0319F230 L868 GISER L862 OKLAX

Weather Information
LOWW 220350Z VRB01KT CAVOK 05/01 Q1015 NOSIG
LDSP 220330Z 02005KT CAVOK 12/09 Q1018 NOSIG
Schedule Frequency

Route Map